Nearby METAR Reports

 

GCLP - Las Palmas/Gando, Spain
Distance from station: NE 26km
Updated: 29/09/2020 06:30
Partly cloudy
Partly cloudy
 Wind from N
Wind: N 24 km/h
Temperature: 23°C
Dew Point: 17°C
Humidity: 69%
Barometer: 1016 hPa
Clouds: Partly cloudy
Visibility: 10 km
Cloud details: Few Clouds 610 m
Partly cloudy 1067 m
2020/09/29 06:30 GCLP 290630Z 01013KT 9999 FEW020 SCT035 23/17 Q1016 NOSIG
GCTS - Tenerife Sur/Rei, Spain
Distance from station: WNW 102km
Updated: 29/09/2020 06:30
Mostly cloudy
Mostly cloudy
 Wind from ENE
Wind: ENE 7 km/h
Temperature: 23°C
Dew Point: 17°C
Humidity: 69%
Barometer: 1016 hPa
Clouds: Mostly cloudy
Visibility: 10 km
Cloud details: Few Clouds 914 m
Mostly cloudy 1158 m
2020/09/29 06:30 GCTS 290630Z 06004KT 9999 FEW030 BKN038 23/17 Q1016 NOSIG
 
GCXO - Tenerife/Los Rod, Spain
Distance from station: NW 110km
Updated: 29/09/2020 06:30
Mostly cloudy
Mostly cloudy
 Wind from NW
Wind: NW 24 km/h
Temperature: 18°C
Dew Point: 16°C
Humidity: 88%
Barometer: 1018 hPa
Clouds: Mostly cloudy
Visibility: 10 km
Cloud details: Few Clouds 152 m
Mostly cloudy 366 m
2020/09/29 06:30 GCXO 290630Z 32013KT 9999 FEW005 BKN012 18/16 Q1018 NOSIG
GCGM - La Gomera Arpt, Spain
Distance from station: W 164km
Updated: 29/09/2020 06:30
Few Clouds
Few Clouds
 Wind from W
Wind: W 6 km/h
Temperature: 21°C
Dew Point: 17°C
Humidity: 78%
Barometer: 1017 hPa
Clouds: Few Clouds
Visibility: 10 km
Cloud details: Few Clouds 914 m
2020/09/29 06:30 GCGM 290630Z 27003KT 240V300 9999 FEW030 21/17 Q1017 RMK R09/VRB01KT ARP/VRB02KT
 
GCFV - Fuerteventura Ar, Spain
Distance from station: ENE 183km
Updated: 29/09/2020 06:30
Mostly cloudy
Mostly cloudy
 Wind from N
Wind: N 17 km/h
Temperature: 23°C
Dew Point: 17°C
Humidity: 69%
Barometer: 1015 hPa
Clouds: Mostly cloudy
Visibility: 10 km
Cloud details: Few Clouds 762 m
Mostly cloudy 1067 m
2020/09/29 06:30 GCFV 290630Z 01009KT 9999 FEW025 BKN035 23/17 Q1015
GCHI - Hierro Airport, Spain
Distance from station: W 226km
Updated: 29/09/2020 06:30
Few Clouds
Few Clouds
 Wind from N
Wind: N 22 km/h
Temperature: 22°C
Dew Point: 19°C
Humidity: 83%
Barometer: 1017 hPa
Clouds: Few Clouds
Visibility: 10 km
Cloud details: Few Clouds 610 m
2020/09/29 06:30 GCHI 290630Z 01012KT 340V050 9999 FEW020 22/19 Q1017
 
GCLA - La Palma Airport, Spain
Distance from station: WNW 233km
Updated: 29/09/2020 06:30
Mostly cloudy
Mostly cloudy
 Wind from NNW
Wind: NNW 19 km/h
Temperature: 22°C
Dew Point: 19°C
Humidity: 83%
Barometer: 1017 hPa
Clouds: Mostly cloudy
Visibility: 10 km
Cloud details: Partly cloudy 701 m
Mostly cloudy 1219 m
2020/09/29 06:30 GCLA 290630Z 33010KT 9999 SCT023 BKN040 22/19 Q1017
GCRR - Arrecife/Lanzaro, Spain
Distance from station: NE 234km
Updated: 29/09/2020 06:30
Mostly cloudy
Mostly cloudy
 Wind from NNE
Wind: NNE 20 km/h
Temperature: 22°C
Dew Point: 16°C
Humidity: 69%
Barometer: 1015 hPa
Clouds: Mostly cloudy
Visibility: 10 km
Cloud details: Few Clouds 762 m
Mostly cloudy 975 m
2020/09/29 06:30 GCRR 290630Z 03011KT 9999 FEW025 BKN032 22/16 Q1015
 
LPMA - Funchal/Madeira, Portugal
Distance from station: NNW 556km
Updated: 29/09/2020 06:30
Partly cloudy
Partly cloudy
 Wind from N
Wind: N 17 km/h
Temperature: 20°C
Dew Point: 16°C
Humidity: 78%
Barometer: 1019 hPa
Clouds: Partly cloudy
Visibility: 10 km
Cloud details: Mostly cloudy 457 m
Partly cloudy 914 m
2020/09/29 06:30 LPMA 290630Z 36009KT 320V030 9999 BKN015 SCT030 20/16 Q1019
LPPS - Porto Santo Isla, Portugal
Distance from station: N 594km
Updated: 29/09/2020 06:30
Few Clouds
Few Clouds
 Wind from NNE
Wind: NNE 17 km/h
Temperature: 20°C
Dew Point: 15°C
Humidity: 73%
Barometer: 1019 hPa
Clouds: Few Clouds
Visibility: 10 km
Cloud details: Few Clouds 457 m
2020/09/29 06:30 LPPS 290630Z 02009KT 9999 FEW015 20/15 Q1019